KDOV/DOV METAR and TAF weather

Enter ICAO airport designator
Station Type Date Time Source
KDOV METAR 2024/02/26 17:55 UTC NOAA

KDOV 261755Z AUTO 00000KT 10SM CLR 14/02 A3001 RMK AO2 SLP166 T01410020 10142 20041 58013


Station Type Date Time Source
KDOV Decoded METAR 2024/02/26 17:55 UTC NOAA

Dover Air Force Base, DE, United States (KDOV) 39-08N 075-28W
Feb 26, 2024 - 12:55 PM EST / 2024.02.26 1755 UTC
Wind: Calm:0
Visibility: 10 mile(s):0
Sky conditions: clear
Temperature: 57.4 F (14.1 C)
Dew Point: 35.6 F (2.0 C)
Relative Humidity: 43%
Pressure (altimeter): 30.01 in. Hg (1016 hPa)
Pressure tendency: 0.04 inches (1.3 hPa) lower than three hours ago
ob: KDOV 261755Z AUTO 00000KT 10SM CLR 14/02 A3001 RMK AO2 SLP166 T01410020 10142 20041 58013
cycle: 18

Station Type Date Time Source
KDOV TAF 2024/02/26 16:09 UTC NOAA